sensor_id;sensor_type;location;lat;lon;timestamp;temperature;humidity
18317;DHT22;9284;52.298;21.164;2023-04-05T03:11:15;-3.20;1.00
18317;DHT22;9284;52.298;21.164;2023-04-05T03:13:54;-3.30;99.90
18317;DHT22;9284;52.298;21.164;2023-04-05T03:16:49;-3.40;32.20
18317;DHT22;9284;52.298;21.164;2023-04-05T03:19:42;-3.40;12.30
18317;DHT22;9284;52.298;21.164;2023-04-05T03:22:19;-3.50;88.30
18317;DHT22;9284;52.298;21.164;2023-04-05T03:25:13;-3.60;99.90
18317;DHT22;9284;52.298;21.164;2023-04-05T03:27:53;-3.60;99.90
18317;DHT22;9284;52.298;21.164;2023-04-05T03:30:42;-3.70;1.00
18317;DHT22;9284;52.298;21.164;2023-04-05T03:33:35;-3.60;1.00
18317;DHT22;9284;52.298;21.164;2023-04-05T03:36:15;-3.40;1.00
18317;DHT22;9284;52.298;21.164;2023-04-05T03:38:50;-3.50;1.00
18317;DHT22;9284;52.298;21.164;2023-04-05T03:41:29;-3.40;1.00
18317;DHT22;9284;52.298;21.164;2023-04-05T03:44:14;-3.40;1.00
18317;DHT22;9284;52.298;21.164;2023-04-05T03:46:57;-3.20;1.00
18317;DHT22;9284;52.298;21.164;2023-04-05T03:49:35;-3.20;1.00
18317;DHT22;9284;52.298;21.164;2023-04-05T03:52:23;-3.10;1.00
18317;DHT22;9284;52.298;21.164;2023-04-05T03:54:56;-2.90;1.00
18317;DHT22;9284;52.298;21.164;2023-04-05T03:57:29;-3.00;99.90
18317;DHT22;9284;52.298;21.164;2023-04-05T04:00:16;-2.90;99.90
18317;DHT22;9284;52.298;21.164;2023-04-05T04:03:02;-3.00;90.90
18317;DHT22;9284;52.298;21.164;2023-04-05T04:05:41;-2.80;99.90
18317;DHT22;9284;52.298;21.164;2023-04-05T04:08:18;-2.60;75.30
18317;DHT22;9284;52.298;21.164;2023-04-05T04:11:10;-2.60;1.00
18317;DHT22;9284;52.298;21.164;2023-04-05T04:14:11;-2.60;1.00
18317;DHT22;9284;52.298;21.164;2023-04-05T04:17:28;-2.50;1.00
18317;DHT22;9284;52.298;21.164;2023-04-05T04:20:14;-2.40;1.00
18317;DHT22;9284;52.298;21.164;2023-04-05T04:23:07;-2.30;99.90
18317;DHT22;9284;52.298;21.164;2023-04-05T04:26:05;-2.30;99.90
18317;DHT22;9284;52.298;21.164;2023-04-05T04:28:55;-2.40;1.00
18317;DHT22;9284;52.298;21.164;2023-04-05T04:31:41;-2.40;1.00
18317;DHT22;9284;52.298;21.164;2023-04-05T04:34:36;-2.10;1.00
18317;DHT22;9284;52.298;21.164;2023-04-05T04:37:46;-2.10;1.00
18317;DHT22;9284;52.298;21.164;2023-04-05T04:40:43;-2.00;99.90
18317;DHT22;9284;52.298;21.164;2023-04-05T04:43:22;-1.90;99.90
18317;DHT22;9284;52.298;21.164;2023-04-05T04:46:33;-1.70;1.00
18317;DHT22;9284;52.298;21.164;2023-04-05T04:52:31;-1.70;1.00
18317;DHT22;9284;52.298;21.164;2023-04-05T04:55:19;-1.60;1.00
18317;DHT22;9284;52.298;21.164;2023-04-05T04:57:56;-1.60;99.90
18317;DHT22;9284;52.298;21.164;2023-04-05T05:00:37;-1.60;99.90
18317;DHT22;9284;52.298;21.164;2023-04-05T05:03:11;-1.40;1.00
18317;DHT22;9284;52.298;21.164;2023-04-05T05:05:44;-1.40;99.90
18317;DHT22;9284;52.298;21.164;2023-04-05T05:08:19;-1.50;99.90
18317;DHT22;9284;52.298;21.164;2023-04-05T05:10:57;-1.30;99.90
18317;DHT22;9284;52.298;21.164;2023-04-05T05:13:42;-1.40;17.40
18317;DHT22;9284;52.298;21.164;2023-04-05T05:16:32;-1.30;1.00
18317;DHT22;9284;52.298;21.164;2023-04-05T05:19:06;-1.10;1.00
18317;DHT22;9284;52.298;21.164;2023-04-05T05:22:06;-1.00;1.00
18317;DHT22;9284;52.298;21.164;2023-04-05T05:27:31;-0.90;1.00
18317;DHT22;9284;52.298;21.164;2023-04-05T05:30:17;-0.80;99.90
18317;DHT22;9284;52.298;21.164;2023-04-05T05:32:51;-0.70;1.00
18317;DHT22;9284;52.298;21.164;2023-04-05T05:35:36;-0.60;1.00
18317;DHT22;9284;52.298;21.164;2023-04-05T05:38:33;-0.50;1.00
18317;DHT22;9284;52.298;21.164;2023-04-05T05:41:23;-0.30;99.90
18317;DHT22;9284;52.298;21.164;2023-04-05T05:44:10;-0.40;1.00
18317;DHT22;9284;52.298;21.164;2023-04-05T05:46:45;-0.40;1.00
18317;DHT22;9284;52.298;21.164;2023-04-05T05:49:18;-0.20;1.00
18317;DHT22;9284;52.298;21.164;2023-04-05T05:52:12;-0.20;1.00
18317;DHT22;9284;52.298;21.164;2023-04-05T05:55:00;-0.10;1.00
18317;DHT22;9284;52.298;21.164;2023-04-05T05:57:39;-0.10;1.00
18317;DHT22;9284;52.298;21.164;2023-04-05T06:00:36;0.00;99.90
18317;DHT22;9284;52.298;21.164;2023-04-05T06:03:19;0.00;99.90
18317;DHT22;9284;52.298;21.164;2023-04-05T06:06:06;0.00;1.00
18317;DHT22;9284;52.298;21.164;2023-04-05T06:08:44;0.20;1.00
18317;DHT22;9284;52.298;21.164;2023-04-05T06:11:25;0.20;1.00
18317;DHT22;9284;52.298;21.164;2023-04-05T06:14:18;0.30;99.90
18317;DHT22;9284;52.298;21.164;2023-04-05T06:17:15;0.30;25.70
18317;DHT22;9284;52.298;21.164;2023-04-05T06:20:05;0.40;1.00
18317;DHT22;9284;52.298;21.164;2023-04-05T06:22:47;0.40;1.00
18317;DHT22;9284;52.298;21.164;2023-04-05T06:25:28;0.60;28.30
18317;DHT22;9284;52.298;21.164;2023-04-05T06:28:07;0.60;1.00
18317;DHT22;9284;52.298;21.164;2023-04-05T06:34:05;0.60;99.90
18317;DHT22;9284;52.298;21.164;2023-04-05T06:37:25;0.60;99.90
18317;DHT22;9284;52.298;21.164;2023-04-05T06:39:57;0.80;99.90
18317;DHT22;9284;52.298;21.164;2023-04-05T06:42:35;0.80;1.00
18317;DHT22;9284;52.298;21.164;2023-04-05T06:45:10;0.80;1.00
18317;DHT22;9284;52.298;21.164;2023-04-05T06:47:50;0.80;99.90
18317;DHT22;9284;52.298;21.164;2023-04-05T06:50:55;0.90;99.90
18317;DHT22;9284;52.298;21.164;2023-04-05T06:53:30;1.00;99.90
18317;DHT22;9284;52.298;21.164;2023-04-05T06:56:03;1.00;99.90
18317;DHT22;9284;52.298;21.164;2023-04-05T06:58:40;0.90;1.00
18317;DHT22;9284;52.298;21.164;2023-04-05T07:01:30;1.10;1.00
18317;DHT22;9284;52.298;21.164;2023-04-05T07:04:08;1.00;1.00
18317;DHT22;9284;52.298;21.164;2023-04-05T07:06:48;1.10;1.00
18317;DHT22;9284;52.298;21.164;2023-04-05T07:09:51;1.10;1.00
18317;DHT22;9284;52.298;21.164;2023-04-05T07:12:36;1.20;1.00
18317;DHT22;9284;52.298;21.164;2023-04-05T07:15:44;1.10;1.00
18317;DHT22;9284;52.298;21.164;2023-04-05T07:21:32;1.30;1.00
18317;DHT22;9284;52.298;21.164;2023-04-05T07:24:14;1.40;1.00
18317;DHT22;9284;52.298;21.164;2023-04-05T07:26:56;1.40;1.00
18317;DHT22;9284;52.298;21.164;2023-04-05T07:29:41;1.40;1.00
18317;DHT22;9284;52.298;21.164;2023-04-05T07:32:48;1.50;99.90
18317;DHT22;9284;52.298;21.164;2023-04-05T07:35:36;1.50;99.90
18317;DHT22;9284;52.298;21.164;2023-04-05T07:38:31;1.60;99.90
18317;DHT22;9284;52.298;21.164;2023-04-05T07:41:11;1.80;99.90
18317;DHT22;9284;52.298;21.164;2023-04-05T07:44:16;1.70;99.90
18317;DHT22;9284;52.298;21.164;2023-04-05T07:47:17;1.80;99.90
18317;DHT22;9284;52.298;21.164;2023-04-05T07:49:59;1.80;99.90
18317;DHT22;9284;52.298;21.164;2023-04-05T07:52:47;1.90;99.90
18317;DHT22;9284;52.298;21.164;2023-04-05T07:55:42;2.00;99.90
18317;DHT22;9284;52.298;21.164;2023-04-05T07:58:42;2.20;99.90
18317;DHT22;9284;52.298;21.164;2023-04-05T08:01:19;2.10;99.90
18317;DHT22;9284;52.298;21.164;2023-04-05T08:03:59;2.20;99.90
18317;DHT22;9284;52.298;21.164;2023-04-05T08:06:33;2.30;99.90
18317;DHT22;9284;52.298;21.164;2023-04-05T08:09:23;2.40;99.90
18317;DHT22;9284;52.298;21.164;2023-04-05T08:12:01;2.40;99.90
18317;DHT22;9284;52.298;21.164;2023-04-05T08:14:53;2.40;99.90
18317;DHT22;9284;52.298;21.164;2023-04-05T08:17:27;2.40;99.90
18317;DHT22;9284;52.298;21.164;2023-04-05T08:20:06;2.30;99.90
18317;DHT22;9284;52.298;21.164;2023-04-05T08:22:51;2.60;99.90
18317;DHT22;9284;52.298;21.164;2023-04-05T08:25:30;2.50;99.90
18317;DHT22;9284;52.298;21.164;2023-04-05T08:28:14;2.40;99.90
18317;DHT22;9284;52.298;21.164;2023-04-05T08:30:52;2.60;99.90
18317;DHT22;9284;52.298;21.164;2023-04-05T08:33:32;2.80;99.90
18317;DHT22;9284;52.298;21.164;2023-04-05T08:36:25;3.00;99.90
18317;DHT22;9284;52.298;21.164;2023-04-05T08:39:01;2.80;99.90
18317;DHT22;9284;52.298;21.164;2023-04-05T08:41:47;2.90;99.90
18317;DHT22;9284;52.298;21.164;2023-04-05T08:44:26;2.90;99.90
18317;DHT22;9284;52.298;21.164;2023-04-05T08:47:05;2.70;99.90
18317;DHT22;9284;52.298;21.164;2023-04-05T08:49:45;2.80;99.90
18317;DHT22;9284;52.298;21.164;2023-04-05T08:52:22;3.00;99.90
18317;DHT22;9284;52.298;21.164;2023-04-05T08:55:17;3.10;99.90
18317;DHT22;9284;52.298;21.164;2023-04-05T08:57:53;3.10;99.90
18317;DHT22;9284;52.298;21.164;2023-04-05T09:00:46;3.10;99.90
18317;DHT22;9284;52.298;21.164;2023-04-05T09:03:16;3.00;99.90
18317;DHT22;9284;52.298;21.164;2023-04-05T09:06:00;2.90;99.90
18317;DHT22;9284;52.298;21.164;2023-04-05T09:08:31;3.20;99.90
18317;DHT22;9284;52.298;21.164;2023-04-05T09:11:19;3.10;99.90
18317;DHT22;9284;52.298;21.164;2023-04-05T09:14:06;3.40;99.90
18317;DHT22;9284;52.298;21.164;2023-04-05T09:16:53;3.10;99.90
18317;DHT22;9284;52.298;21.164;2023-04-05T09:19:22;2.80;99.90
18317;DHT22;9284;52.298;21.164;2023-04-05T09:22:01;2.90;99.90
18317;DHT22;9284;52.298;21.164;2023-04-05T09:24:45;3.00;99.90
18317;DHT22;9284;52.298;21.164;2023-04-05T09:27:25;3.30;99.90
18317;DHT22;9284;52.298;21.164;2023-04-05T09:29:59;3.30;99.90
18317;DHT22;9284;52.298;21.164;2023-04-05T09:32:34;3.10;99.90
18317;DHT22;9284;52.298;21.164;2023-04-05T09:35:23;3.30;99.90
18317;DHT22;9284;52.298;21.164;2023-04-05T09:37:58;3.30;99.90
18317;DHT22;9284;52.298;21.164;2023-04-05T09:40:54;3.70;99.90
18317;DHT22;9284;52.298;21.164;2023-04-05T09:43:37;3.60;96.50
18317;DHT22;9284;52.298;21.164;2023-04-05T09:46:06;3.90;93.40
18317;DHT22;9284;52.298;21.164;2023-04-05T09:49:04;3.70;91.70
18317;DHT22;9284;52.298;21.164;2023-04-05T09:51:41;4.00;89.60
18317;DHT22;9284;52.298;21.164;2023-04-05T09:54:20;4.30;64.90
18317;DHT22;9284;52.298;21.164;2023-04-05T09:56:55;4.00;53.90
18317;DHT22;9284;52.298;21.164;2023-04-05T09:59:26;3.90;50.70
18317;DHT22;9284;52.298;21.164;2023-04-05T10:02:09;4.40;42.10
18317;DHT22;9284;52.298;21.164;2023-04-05T10:04:50;4.80;31.40
18317;DHT22;9284;52.298;21.164;2023-04-05T10:07:23;4.70;36.00
18317;DHT22;9284;52.298;21.164;2023-04-05T10:10:02;4.30;40.10
18317;DHT22;9284;52.298;21.164;2023-04-05T10:12:40;3.90;46.40
18317;DHT22;9284;52.298;21.164;2023-04-05T10:15:20;3.70;44.30
18317;DHT22;9284;52.298;21.164;2023-04-05T10:18:12;3.60;55.00
18317;DHT22;9284;52.298;21.164;2023-04-05T10:20:50;3.60;50.00
18317;DHT22;9284;52.298;21.164;2023-04-05T10:23:30;3.50;44.80
18317;DHT22;9284;52.298;21.164;2023-04-05T10:26:09;3.40;38.10
18317;DHT22;9284;52.298;21.164;2023-04-05T10:29:24;3.10;36.70
18317;DHT22;9284;52.298;21.164;2023-04-05T10:32:02;3.20;52.50
18317;DHT22;9284;52.298;21.164;2023-04-05T10:34:54;3.10;45.10
18317;DHT22;9284;52.298;21.164;2023-04-05T10:38:07;3.20;26.60
18317;DHT22;9284;52.298;21.164;2023-04-05T10:40:52;3.30;30.90
18317;DHT22;9284;52.298;21.164;2023-04-05T10:43:24;3.40;31.60
18317;DHT22;9284;52.298;21.164;2023-04-05T10:45:59;3.50;35.20
18317;DHT22;9284;52.298;21.164;2023-04-05T10:48:48;3.50;37.70
18317;DHT22;9284;52.298;21.164;2023-04-05T10:51:23;3.70;33.10
18317;DHT22;9284;52.298;21.164;2023-04-05T10:54:17;3.70;22.00
18317;DHT22;9284;52.298;21.164;2023-04-05T10:57:14;3.90;28.00
18317;DHT22;9284;52.298;21.164;2023-04-05T10:59:59;3.60;23.30
18317;DHT22;9284;52.298;21.164;2023-04-05T11:02:36;3.60;26.90
18317;DHT22;9284;52.298;21.164;2023-04-05T11:05:33;3.70;22.80
18317;DHT22;9284;52.298;21.164;2023-04-05T11:08:11;3.70;25.30
18317;DHT22;9284;52.298;21.164;2023-04-05T11:10:51;3.80;19.10
18317;DHT22;9284;52.298;21.164;2023-04-05T11:13:50;4.00;23.10
18317;DHT22;9284;52.298;21.164;2023-04-05T11:16:39;4.10;23.70
18317;DHT22;9284;52.298;21.164;2023-04-05T11:19:10;4.20;28.50
18317;DHT22;9284;52.298;21.164;2023-04-05T11:21:44;4.60;26.30
18317;DHT22;9284;52.298;21.164;2023-04-05T11:24:18;4.40;27.40
18317;DHT22;9284;52.298;21.164;2023-04-05T11:26:59;4.40;37.80
18317;DHT22;9284;52.298;21.164;2023-04-05T11:29:48;4.40;33.40
18317;DHT22;9284;52.298;21.164;2023-04-05T11:32:20;4.40;43.30
18317;DHT22;9284;52.298;21.164;2023-04-05T11:34:58;4.50;40.20
18317;DHT22;9284;52.298;21.164;2023-04-05T11:38:05;4.50;37.60
18317;DHT22;9284;52.298;21.164;2023-04-05T11:40:47;4.40;37.40
18317;DHT22;9284;52.298;21.164;2023-04-05T11:44:27;4.50;36.80
18317;DHT22;9284;52.298;21.164;2023-04-05T11:47:03;4.20;29.50
18317;DHT22;9284;52.298;21.164;2023-04-05T11:49:36;4.20;30.30
18317;DHT22;9284;52.298;21.164;2023-04-05T11:52:17;3.80;21.30
18317;DHT22;9284;52.298;21.164;2023-04-05T11:55:00;3.80;25.70
18317;DHT22;9284;52.298;21.164;2023-04-05T11:57:33;3.90;26.50
18317;DHT22;9284;52.298;21.164;2023-04-05T12:00:22;3.70;25.50
18317;DHT22;9284;52.298;21.164;2023-04-05T12:03:04;3.90;27.40
18317;DHT22;9284;52.298;21.164;2023-04-05T12:05:48;4.00;23.70
18317;DHT22;9284;52.298;21.164;2023-04-05T12:08:38;4.50;32.40
18317;DHT22;9284;52.298;21.164;2023-04-05T12:11:22;5.00;34.80
18317;DHT22;9284;52.298;21.164;2023-04-05T12:14:01;5.50;36.90
18317;DHT22;9284;52.298;21.164;2023-04-05T12:16:58;6.00;35.80
18317;DHT22;9284;52.298;21.164;2023-04-05T12:19:34;6.40;44.80
18317;DHT22;9284;52.298;21.164;2023-04-05T12:22:10;6.20;42.90
18317;DHT22;9284;52.298;21.164;2023-04-05T12:24:42;5.90;44.80
18317;DHT22;9284;52.298;21.164;2023-04-05T12:27:41;5.90;50.10
18317;DHT22;9284;52.298;21.164;2023-04-05T12:31:00;5.70;46.10
18317;DHT22;9284;52.298;21.164;2023-04-05T12:33:49;5.20;47.40
18317;DHT22;9284;52.298;21.164;2023-04-05T12:36:26;5.10;49.00
18317;DHT22;9284;52.298;21.164;2023-04-05T12:39:06;5.00;73.10
18317;DHT22;9284;52.298;21.164;2023-04-05T12:41:54;4.80;49.40
18317;DHT22;9284;52.298;21.164;2023-04-05T12:44:27;4.80;48.00
18317;DHT22;9284;52.298;21.164;2023-04-05T12:47:10;4.80;52.60
18317;DHT22;9284;52.298;21.164;2023-04-05T12:49:45;4.80;48.70
18317;DHT22;9284;52.298;21.164;2023-04-05T12:52:20;4.60;42.80
18317;DHT22;9284;52.298;21.164;2023-04-05T12:54:53;4.70;44.80
18317;DHT22;9284;52.298;21.164;2023-04-05T12:57:30;4.60;47.10
18317;DHT22;9284;52.298;21.164;2023-04-05T13:00:09;4.50;44.50
18317;DHT22;9284;52.298;21.164;2023-04-05T13:02:42;4.40;47.90
18317;DHT22;9284;52.298;21.164;2023-04-05T13:05:22;4.20;43.40
18317;DHT22;9284;52.298;21.164;2023-04-05T13:07:54;4.10;43.60
18317;DHT22;9284;52.298;21.164;2023-04-05T13:10:27;4.20;42.20
18317;DHT22;9284;52.298;21.164;2023-04-05T13:12:58;4.40;44.40
18317;DHT22;9284;52.298;21.164;2023-04-05T13:15:38;4.30;43.00
18317;DHT22;9284;52.298;21.164;2023-04-05T13:18:17;4.30;42.00
18317;DHT22;9284;52.298;21.164;2023-04-05T13:24:03;4.50;41.20
18317;DHT22;9284;52.298;21.164;2023-04-05T13:26:43;4.50;40.70
18317;DHT22;9284;52.298;21.164;2023-04-05T13:29:51;4.50;37.10
18317;DHT22;9284;52.298;21.164;2023-04-05T13:32:37;4.40;38.60
18317;DHT22;9284;52.298;21.164;2023-04-05T13:35:19;4.40;41.70
18317;DHT22;9284;52.298;21.164;2023-04-05T13:38:13;4.40;40.60
18317;DHT22;9284;52.298;21.164;2023-04-05T13:41:20;4.40;38.10
18317;DHT22;9284;52.298;21.164;2023-04-05T13:44:03;4.30;39.20
18317;DHT22;9284;52.298;21.164;2023-04-05T13:46:56;4.40;41.90
18317;DHT22;9284;52.298;21.164;2023-04-05T13:49:46;4.40;41.80
18317;DHT22;9284;52.298;21.164;2023-04-05T13:52:27;4.40;35.00
18317;DHT22;9284;52.298;21.164;2023-04-05T13:55:12;4.40;39.60
18317;DHT22;9284;52.298;21.164;2023-04-05T13:58:09;4.20;39.80
18317;DHT22;9284;52.298;21.164;2023-04-05T14:00:55;4.20;35.10
18317;DHT22;9284;52.298;21.164;2023-04-05T14:03:56;4.30;34.20
18317;DHT22;9284;52.298;21.164;2023-04-05T14:06:48;4.60;40.00
18317;DHT22;9284;52.298;21.164;2023-04-05T14:09:24;4.20;34.70
18317;DHT22;9284;52.298;21.164;2023-04-05T14:12:03;4.40;35.70
18317;DHT22;9284;52.298;21.164;2023-04-05T14:14:43;4.30;35.80
18317;DHT22;9284;52.298;21.164;2023-04-05T14:17:36;4.30;39.60
18317;DHT22;9284;52.298;21.164;2023-04-05T14:20:26;4.10;31.90
18317;DHT22;9284;52.298;21.164;2023-04-05T14:23:00;4.00;31.30
18317;DHT22;9284;52.298;21.164;2023-04-05T14:25:56;4.00;36.40
18317;DHT22;9284;52.298;21.164;2023-04-05T14:28:34;4.00;35.80
18317;DHT22;9284;52.298;21.164;2023-04-05T14:31:13;3.90;37.10
18317;DHT22;9284;52.298;21.164;2023-04-05T14:33:54;4.00;34.70
18317;DHT22;9284;52.298;21.164;2023-04-05T14:36:50;4.40;40.60
18317;DHT22;9284;52.298;21.164;2023-04-05T14:39:34;4.20;41.50
18317;DHT22;9284;52.298;21.164;2023-04-05T14:42:16;4.20;38.40
18317;DHT22;9284;52.298;21.164;2023-04-05T14:47:05;4.20;35.60
18317;DHT22;9284;52.298;21.164;2023-04-05T14:48:40;4.30;37.40
18317;DHT22;9284;52.298;21.164;2023-04-05T14:51:21;4.30;35.00
18317;DHT22;9284;52.298;21.164;2023-04-05T14:54:14;4.40;38.20
18317;DHT22;9284;52.298;21.164;2023-04-05T14:56:47;4.30;32.10
18317;DHT22;9284;52.298;21.164;2023-04-05T14:59:33;4.10;29.70
18317;DHT22;9284;52.298;21.164;2023-04-05T15:02:05;4.10;31.50
18317;DHT22;9284;52.298;21.164;2023-04-05T15:04:56;4.00;28.80
18317;DHT22;9284;52.298;21.164;2023-04-05T15:07:36;4.00;30.80
18317;DHT22;9284;52.298;21.164;2023-04-05T15:10:14;4.10;29.70
18317;DHT22;9284;52.298;21.164;2023-04-05T15:12:44;4.10;31.10
18317;DHT22;9284;52.298;21.164;2023-04-05T15:15:21;4.00;29.90
18317;DHT22;9284;52.298;21.164;2023-04-05T15:17:58;4.00;27.90
18317;DHT22;9284;52.298;21.164;2023-04-05T15:20:32;4.00;30.80
18317;DHT22;9284;52.298;21.164;2023-04-05T15:23:15;3.90;33.50
18317;DHT22;9284;52.298;21.164;2023-04-05T15:25:59;3.90;28.60
18317;DHT22;9284;52.298;21.164;2023-04-05T15:28:41;3.90;29.50
18317;DHT22;9284;52.298;21.164;2023-04-05T15:31:14;3.80;29.50
18317;DHT22;9284;52.298;21.164;2023-04-05T15:34:16;3.80;30.00
18317;DHT22;9284;52.298;21.164;2023-04-05T15:36:54;3.70;29.10
18317;DHT22;9284;52.298;21.164;2023-04-05T15:39:27;3.60;32.20
18317;DHT22;9284;52.298;21.164;2023-04-05T15:42:05;3.60;31.60
18317;DHT22;9284;52.298;21.164;2023-04-05T15:44:46;3.50;28.90
18317;DHT22;9284;52.298;21.164;2023-04-05T15:47:19;3.50;27.50
18317;DHT22;9284;52.298;21.164;2023-04-05T15:50:16;3.50;29.80
18317;DHT22;9284;52.298;21.164;2023-04-05T15:52:48;3.40;34.10
18317;DHT22;9284;52.298;21.164;2023-04-05T15:55:31;3.60;29.00
18317;DHT22;9284;52.298;21.164;2023-04-05T15:58:05;3.40;32.30
18317;DHT22;9284;52.298;21.164;2023-04-05T16:00:41;3.40;30.30
18317;DHT22;9284;52.298;21.164;2023-04-05T16:03:20;3.40;29.70
18317;DHT22;9284;52.298;21.164;2023-04-05T16:06:05;3.30;30.50
18317;DHT22;9284;52.298;21.164;2023-04-05T16:08:40;3.20;32.60
18317;DHT22;9284;52.298;21.164;2023-04-05T16:11:23;3.20;29.80
18317;DHT22;9284;52.298;21.164;2023-04-05T16:14:13;3.20;28.30
18317;DHT22;9284;52.298;21.164;2023-04-05T16:17:06;3.20;29.70
18317;DHT22;9284;52.298;21.164;2023-04-05T16:19:38;3.20;33.60
18317;DHT22;9284;52.298;21.164;2023-04-05T16:22:13;3.10;30.10
18317;DHT22;9284;52.298;21.164;2023-04-05T16:25:07;3.10;30.70
18317;DHT22;9284;52.298;21.164;2023-04-05T16:27:53;3.10;35.80
18317;DHT22;9284;52.298;21.164;2023-04-05T16:30:51;3.10;27.90
18317;DHT22;9284;52.298;21.164;2023-04-05T16:33:27;3.00;29.20
18317;DHT22;9284;52.298;21.164;2023-04-05T16:36:21;3.00;26.70
18317;DHT22;9284;52.298;21.164;2023-04-05T16:39:10;2.90;24.30
18317;DHT22;9284;52.298;21.164;2023-04-05T16:41:40;2.90;27.60
18317;DHT22;9284;52.298;21.164;2023-04-05T16:44:14;2.80;26.10
18317;DHT22;9284;52.298;21.164;2023-04-05T16:46:53;2.90;25.90
18317;DHT22;9284;52.298;21.164;2023-04-05T16:49:39;2.80;27.20
18317;DHT22;9284;52.298;21.164;2023-04-05T16:52:11;2.70;28.00
18317;DHT22;9284;52.298;21.164;2023-04-05T16:54:56;2.70;28.30
18317;DHT22;9284;52.298;21.164;2023-04-05T16:57:29;2.70;27.20
18317;DHT22;9284;52.298;21.164;2023-04-05T17:00:12;2.60;27.60
18317;DHT22;9284;52.298;21.164;2023-04-05T17:02:51;2.60;34.90
18317;DHT22;9284;52.298;21.164;2023-04-05T17:05:24;2.60;32.90
18317;DHT22;9284;52.298;21.164;2023-04-05T17:08:14;2.60;28.20
18317;DHT22;9284;52.298;21.164;2023-04-05T17:11:06;2.60;35.50
18317;DHT22;9284;52.298;21.164;2023-04-05T17:13:52;2.40;32.40
18317;DHT22;9284;52.298;21.164;2023-04-05T17:16:32;2.40;32.20
18317;DHT22;9284;52.298;21.164;2023-04-05T17:19:11;2.40;33.50
18317;DHT22;9284;52.298;21.164;2023-04-05T17:22:17;2.30;29.20
18317;DHT22;9284;52.298;21.164;2023-04-05T17:24:54;2.20;36.90
18317;DHT22;9284;52.298;21.164;2023-04-05T17:27:35;2.20;33.90
18317;DHT22;9284;52.298;21.164;2023-04-05T17:30:19;2.20;33.60
18317;DHT22;9284;52.298;21.164;2023-04-05T17:33:01;2.10;34.90
18317;DHT22;9284;52.298;21.164;2023-04-05T17:35:32;2.10;57.80
18317;DHT22;9284;52.298;21.164;2023-04-05T17:38:03;2.10;39.70
18317;DHT22;9284;52.298;21.164;2023-04-05T17:40:34;2.10;36.60
18317;DHT22;9284;52.298;21.164;2023-04-05T17:43:11;2.20;36.00
18317;DHT22;9284;52.298;21.164;2023-04-05T17:45:55;2.10;40.40
18317;DHT22;9284;52.298;21.164;2023-04-05T17:48:33;2.10;34.60
18317;DHT22;9284;52.298;21.164;2023-04-05T17:51:06;2.10;40.90
18317;DHT22;9284;52.298;21.164;2023-04-05T17:53:37;2.10;45.00
18317;DHT22;9284;52.298;21.164;2023-04-05T17:56:09;2.30;43.50
18317;DHT22;9284;52.298;21.164;2023-04-05T17:58:43;2.10;58.70
18317;DHT22;9284;52.298;21.164;2023-04-05T18:01:18;2.10;40.90
18317;DHT22;9284;52.298;21.164;2023-04-05T18:04:03;2.10;42.00
18317;DHT22;9284;52.298;21.164;2023-04-05T18:06:46;2.10;46.30
18317;DHT22;9284;52.298;21.164;2023-04-05T18:09:18;2.10;43.00
18317;DHT22;9284;52.298;21.164;2023-04-05T18:11:57;2.00;41.60
18317;DHT22;9284;52.298;21.164;2023-04-05T18:14:36;2.00;45.40
18317;DHT22;9284;52.298;21.164;2023-04-05T18:17:11;2.10;53.70
18317;DHT22;9284;52.298;21.164;2023-04-05T18:19:42;2.00;53.80
18317;DHT22;9284;52.298;21.164;2023-04-05T18:22:19;2.00;49.70
18317;DHT22;9284;52.298;21.164;2023-04-05T18:24:50;2.00;55.00
18317;DHT22;9284;52.298;21.164;2023-04-05T18:27:31;2.00;58.50
18317;DHT22;9284;52.298;21.164;2023-04-05T18:30:28;2.00;80.40
18317;DHT22;9284;52.298;21.164;2023-04-05T18:33:16;2.00;79.30
18317;DHT22;9284;52.298;21.164;2023-04-05T18:36:05;1.90;89.50
18317;DHT22;9284;52.298;21.164;2023-04-05T18:38:45;1.90;91.00
18317;DHT22;9284;52.298;21.164;2023-04-05T18:41:39;1.90;96.30
18317;DHT22;9284;52.298;21.164;2023-04-05T18:44:23;1.80;97.10
18317;DHT22;9284;52.298;21.164;2023-04-05T18:47:26;1.80;97.10
18317;DHT22;9284;52.298;21.164;2023-04-05T18:50:19;1.90;99.90
18317;DHT22;9284;52.298;21.164;2023-04-05T18:52:55;1.90;99.90
18317;DHT22;9284;52.298;21.164;2023-04-05T18:55:30;2.00;99.90
18317;DHT22;9284;52.298;21.164;2023-04-05T18:58:23;1.80;99.90
18317;DHT22;9284;52.298;21.164;2023-04-05T19:01:07;1.80;99.90
18317;DHT22;9284;52.298;21.164;2023-04-05T19:03:43;1.80;99.90
18317;DHT22;9284;52.298;21.164;2023-04-05T19:06:40;1.80;99.90
18317;DHT22;9284;52.298;21.164;2023-04-05T19:09:11;1.90;99.90
18317;DHT22;9284;52.298;21.164;2023-04-05T19:11:52;1.80;99.90
18317;DHT22;9284;52.298;21.164;2023-04-05T19:14:38;1.80;99.90
18317;DHT22;9284;52.298;21.164;2023-04-05T19:17:26;1.80;99.90
18317;DHT22;9284;52.298;21.164;2023-04-05T19:20:27;1.80;99.90
18317;DHT22;9284;52.298;21.164;2023-04-05T19:23:02;1.80;99.90
18317;DHT22;9284;52.298;21.164;2023-04-05T19:25:45;1.70;99.90
18317;DHT22;9284;52.298;21.164;2023-04-05T19:28:20;1.80;99.90
18317;DHT22;9284;52.298;21.164;2023-04-05T19:30:59;1.80;99.90
18317;DHT22;9284;52.298;21.164;2023-04-05T19:33:36;1.80;99.90
18317;DHT22;9284;52.298;21.164;2023-04-05T19:36:51;1.80;99.90
18317;DHT22;9284;52.298;21.164;2023-04-05T19:39:35;1.80;99.90
18317;DHT22;9284;52.298;21.164;2023-04-05T19:42:15;1.80;99.90
18317;DHT22;9284;52.298;21.164;2023-04-05T19:44:50;1.70;99.90
18317;DHT22;9284;52.298;21.164;2023-04-05T19:47:26;1.80;99.90
18317;DHT22;9284;52.298;21.164;2023-04-05T19:50:07;1.80;99.90
18317;DHT22;9284;52.298;21.164;2023-04-05T19:52:48;1.80;99.90
18317;DHT22;9284;52.298;21.164;2023-04-05T19:55:32;1.70;91.20
18317;DHT22;9284;52.298;21.164;2023-04-05T19:58:09;1.70;95.90
18317;DHT22;9284;52.298;21.164;2023-04-05T20:00:49;1.70;93.20
18317;DHT22;9284;52.298;21.164;2023-04-05T20:03:32;1.70;94.30
18317;DHT22;9284;52.298;21.164;2023-04-05T20:06:12;1.70;89.80
18317;DHT22;9284;52.298;21.164;2023-04-05T20:08:50;1.70;87.20
18317;DHT22;9284;52.298;21.164;2023-04-05T20:11:29;1.70;90.10
18317;DHT22;9284;52.298;21.164;2023-04-05T20:14:12;1.70;94.80
18317;DHT22;9284;52.298;21.164;2023-04-05T20:16:44;1.70;99.90
18317;DHT22;9284;52.298;21.164;2023-04-05T20:19:28;1.70;94.50
18317;DHT22;9284;52.298;21.164;2023-04-05T20:21:59;1.60;94.90
18317;DHT22;9284;52.298;21.164;2023-04-05T20:24:33;1.60;98.90
18317;DHT22;9284;52.298;21.164;2023-04-05T20:27:07;1.60;99.40
18317;DHT22;9284;52.298;21.164;2023-04-05T20:30:10;1.60;99.60
18317;DHT22;9284;52.298;21.164;2023-04-05T20:32:44;1.60;99.90
18317;DHT22;9284;52.298;21.164;2023-04-05T20:35:29;1.60;98.80
18317;DHT22;9284;52.298;21.164;2023-04-05T20:38:15;1.50;98.40
18317;DHT22;9284;52.298;21.164;2023-04-05T20:40:54;1.60;99.90
18317;DHT22;9284;52.298;21.164;2023-04-05T20:43:51;1.50;99.90
18317;DHT22;9284;52.298;21.164;2023-04-05T20:46:29;1.60;99.90
18317;DHT22;9284;52.298;21.164;2023-04-05T20:49:21;1.60;99.90
18317;DHT22;9284;52.298;21.164;2023-04-05T20:52:05;1.50;99.90
18317;DHT22;9284;52.298;21.164;2023-04-05T20:54:43;1.50;99.90